Pagrindinis puslapis
METAR-TAF:

METAR-TAF

Oro uostai :

Wajima, Japonija

platuma: 37-17-36N, ilguma: 136-57-44E, Aukštis: 219 m

Dabartinis oras

Ataskaita buvo paskelbta 1 valandą ir 1 minutes, ne 03:00 UTC
Vėjas 7 kt iš Vakarų/Pietvakarių
Temperatūra 5°C
Drėgmė 87%
Slėgis 1014 hPa
Matomumas 10 km arba daugiau
Mažai debesys ne aukštis 1500 ft
Su prošvaistėmis ne aukštis 3000 ft
Su prošvaistėmis ne aukštis 3500 ft

METAR: RJNW 200300Z 24007KT 9999 FEW015 BKN030 BKN035 05/03 Q1014

Laikas: 13:01 (04:01 UTC)


TAF: trūkstamas

Orai ataskaitas ir orų prognozės (METAR, TAF).

turimą stotys yra geltonos ir raudonos taškus žemėlapyje.

Perkelti pele per norėdami pamatyti stoties vardą.

Tada spustelėkite, norėdami matyti oro stebėjimo ir prognozės.

Norėdami pakeisti žemėlapį: spustelėkite ant žalios mygtukų su juodo kryžiaus žemyn,; žalią mygtuką su brūkšneliu, jei norite nutolinti; arba žalių rodyklių gretimoms žemėlapius.


METAR-TAF: